Time;durP1;ratioP1;P1;durP2;ratioP2;P2;SDS_P1;SDS_P2;PMS_P1;PMS_P2;Temp;Humidity;BMP_temperature;BMP_pressure;BME280_temperature;BME280_humidity;BME280_pressure;Samples;Min_cycle;Max_cycle;Signal;HPM_P1;HPM_P2
2023/05/29 00:00:53;;;;;;;;;;;10.60;99.90;;;;;;5116265;27;20018;-76
2023/05/29 00:03:19;;;;;;;;;;;10.60;99.90;;;;;;5116728;27;19929;-77
2023/05/29 00:05:44;;;;;;;;;;;10.50;99.90;;;;;;5116420;27;19923;-77
2023/05/29 00:08:10;;;;;;;;;;;10.50;99.90;;;;;;5133780;27;20284;-77
2023/05/29 00:10:37;;;;;;;;;;;10.50;99.90;;;;;;5133372;27;19924;-77
2023/05/29 00:13:03;;;;;;;;;;;10.50;99.90;;;;;;5116438;27;20357;-76
2023/05/29 00:15:30;;;;;;;;;;;10.40;99.90;;;;;;5150770;27;20013;-76
2023/05/29 00:17:55;;;;;;;;;;;10.40;99.90;;;;;;5098584;27;19931;-77
2023/05/29 00:20:21;;;;;;;;;;;10.40;99.90;;;;;;5115923;27;19923;-77
2023/05/29 00:22:47;;;;;;;;;;;10.40;99.90;;;;;;5132894;27;19992;-76
2023/05/29 00:25:15;;;;;;;;;;;10.40;99.90;;;;;;5116162;27;20356;-76
2023/05/29 00:27:41;;;;;;;;;;;10.30;99.90;;;;;;5150240;27;19984;-77
2023/05/29 00:30:07;;;;;;;;;;;10.30;99.90;;;;;;5150433;27;19923;-77
2023/05/29 00:32:33;;;;;;;;;;;10.30;99.90;;;;;;5150352;27;19923;-79
2023/05/29 00:34:58;;;;;;;;;;;10.30;99.90;;;;;;5115808;27;19972;-76
2023/05/29 00:37:24;;;;;;;;;;;10.30;99.90;;;;;;5132796;27;20018;-76
2023/05/29 00:39:50;;;;;;;;;;;10.20;99.90;;;;;;5115556;27;19928;-77
2023/05/29 00:42:15;;;;;;;;;;;10.20;99.90;;;;;;5133074;27;20430;-77
2023/05/29 00:44:41;;;;;;;;;;;10.20;99.90;;;;;;5132322;27;19934;-77
2023/05/29 00:47:07;;;;;;;;;;;10.10;99.90;;;;;;5115934;27;19976;-77
2023/05/29 00:49:33;;;;;;;;;;;10.10;99.90;;;;;;5115727;27;20010;-76
2023/05/29 00:51:59;;;;;;;;;;;10.10;99.90;;;;;;5132474;27;20021;-76
2023/05/29 00:54:29;;;;;;;;;;;10.10;99.90;;;;;;5132694;27;19923;-76
2023/05/29 00:56:57;;;;;;;;;;;10.10;99.90;;;;;;5132248;27;19923;-76
2023/05/29 00:59:23;;;;;;;;;;;10.00;99.90;;;;;;5115772;27;19971;-77
2023/05/29 01:01:52;;;;;;;;;;;10.00;99.90;;;;;;5098278;27;19946;-76
2023/05/29 01:04:17;;;;;;;;;;;10.00;99.90;;;;;;5115907;27;19924;-76
2023/05/29 01:06:43;;;;;;;;;;;10.00;99.90;;;;;;5115167;27;19972;-76
2023/05/29 01:09:09;;;;;;;;;;;10.00;99.90;;;;;;5149947;27;19923;-76
2023/05/29 01:11:44;;;;;;;;;;;10.10;99.90;;;;;;5132373;27;20364;-77
2023/05/29 01:14:13;;;;;;;;;;;10.00;99.90;;;;;;5114945;27;20017;-76
2023/05/29 01:16:48;;;;;;;;;;;10.00;99.90;;;;;;5115070;27;20014;-79
2023/05/29 01:19:32;;;;;;;;;;;10.00;99.90;;;;;;5132056;27;19923;-77
2023/05/29 01:22:27;;;;;;;;;;;10.00;99.90;;;;;;5149096;27;19933;-77
2023/05/29 01:25:15;;;;;;;;;;;10.10;99.90;;;;;;5101307;27;20399;-77
2023/05/29 01:27:41;;;;;;;;;;;10.10;99.90;;;;;;5132323;27;19923;-78
2023/05/29 01:30:07;;;;;;;;;;;10.10;99.90;;;;;;5114928;27;20030;-77
2023/05/29 01:32:33;;;;;;;;;;;10.10;99.90;;;;;;5148615;27;19924;-77
2023/05/29 01:34:59;;;;;;;;;;;10.20;99.90;;;;;;5131529;27;19924;-77
2023/05/29 01:37:25;;;;;;;;;;;10.10;99.90;;;;;;5114624;27;19931;-76
2023/05/29 01:39:50;;;;;;;;;;;10.10;99.90;;;;;;5131811;27;19924;-78
2023/05/29 01:42:16;;;;;;;;;;;10.10;99.90;;;;;;5114898;28;19974;-76
2023/05/29 01:44:42;;;;;;;;;;;10.00;99.90;;;;;;5114590;28;19984;-76
2023/05/29 01:47:08;;;;;;;;;;;10.00;99.90;;;;;;5097396;28;19924;-77
2023/05/29 01:49:35;;;;;;;;;;;10.00;99.90;;;;;;5098086;28;19930;-77
2023/05/29 01:52:00;;;;;;;;;;;10.00;99.90;;;;;;5114355;28;20029;-77
2023/05/29 01:54:26;;;;;;;;;;;10.00;99.90;;;;;;5131353;28;19967;-77
2023/05/29 01:56:51;;;;;;;;;;;10.00;99.90;;;;;;5131179;28;19924;-77
2023/05/29 01:59:17;;;;;;;;;;;9.90;99.90;;;;;;5097485;28;20310;-77
2023/05/29 02:01:42;;;;;;;;;;;9.90;99.90;;;;;;5131796;28;20034;-77
2023/05/29 02:04:08;;;;;;;;;;;9.90;99.90;;;;;;5114280;28;20272;-77
2023/05/29 02:06:34;;;;;;;;;;;9.80;99.90;;;;;;5114607;28;19968;-77
2023/05/29 02:08:59;;;;;;;;;;;9.80;99.90;;;;;;5130902;28;19927;-78
2023/05/29 02:11:26;;;;;;;;;;;9.80;99.90;;;;;;5114510;28;19974;-77
2023/05/29 02:13:52;;;;;;;;;;;9.70;99.90;;;;;;5114036;28;20326;-77
2023/05/29 02:16:20;;;;;;;;;;;9.70;99.90;;;;;;5114188;28;19927;-77
2023/05/29 02:18:45;;;;;;;;;;;9.70;99.90;;;;;;5131315;28;19972;-78
2023/05/29 02:21:11;;;;;;;;;;;9.70;99.90;;;;;;5148492;27;19924;-78
2023/05/29 02:23:37;;;;;;;;;;;9.70;99.90;;;;;;5097601;28;19924;-75
2023/05/29 02:26:02;;;;;;;;;;;9.70;99.90;;;;;;5113671;28;19924;-77
2023/05/29 02:28:28;;;;;;;;;;;9.70;99.90;;;;;;5114400;28;20356;-77
2023/05/29 02:30:53;;;;;;;;;;;9.70;99.90;;;;;;5113965;28;19924;-77
2023/05/29 02:33:19;;;;;;;;;;;9.70;99.90;;;;;;5114326;28;19952;-77
2023/05/29 02:35:45;;;;;;;;;;;9.80;99.90;;;;;;5131389;28;19923;-77
2023/05/29 02:38:10;;;;;;;;;;;9.80;99.90;;;;;;5130624;28;19926;-76
2023/05/29 02:40:36;;;;;;;;;;;9.80;99.90;;;;;;5114345;28;19924;-76
2023/05/29 02:43:01;;;;;;;;;;;9.80;99.90;;;;;;5098905;27;19923;-77
2023/05/29 02:45:27;;;;;;;;;;;9.80;99.90;;;;;;5117588;27;20310;-77
2023/05/29 02:47:53;;;;;;;;;;;9.80;99.90;;;;;;5117731;27;20069;-79
2023/05/29 02:50:18;;;;;;;;;;;9.80;99.90;;;;;;5117826;27;20442;-78
2023/05/29 02:52:44;;;;;;;;;;;9.80;99.90;;;;;;5135141;27;19923;-78
2023/05/29 02:55:09;;;;;;;;;;;9.90;99.90;;;;;;5117523;27;19943;-76
2023/05/29 02:57:35;;;;;;;;;;;9.90;99.90;;;;;;5117287;27;19991;-77
2023/05/29 03:00:01;;;;;;;;;;;9.90;99.90;;;;;;5117379;27;19923;-77
2023/05/29 03:02:26;;;;;;;;;;;10.00;99.90;;;;;;5134841;27;19976;-76
2023/05/29 03:04:53;;;;;;;;;;;10.00;99.90;;;;;;5134698;27;19967;-76
2023/05/29 03:07:19;;;;;;;;;;;10.00;99.90;;;;;;5151736;27;19927;-77
2023/05/29 03:09:45;;;;;;;;;;;10.10;99.90;;;;;;5100539;27;19923;-77
2023/05/29 03:12:11;;;;;;;;;;;10.10;99.90;;;;;;5117129;27;20020;-77
2023/05/29 03:14:37;;;;;;;;;;;10.10;99.90;;;;;;5134632;27;19930;-77
2023/05/29 03:17:04;;;;;;;;;;;10.10;99.90;;;;;;5116603;27;20359;-78
2023/05/29 03:19:29;;;;;;;;;;;10.10;99.90;;;;;;5134565;27;19936;-77
2023/05/29 03:21:55;;;;;;;;;;;10.00;99.90;;;;;;5116673;27;20287;-79
2023/05/29 03:24:20;;;;;;;;;;;10.10;99.90;;;;;;5116535;27;19954;-77
2023/05/29 03:26:46;;;;;;;;;;;10.10;99.90;;;;;;5099576;27;20429;-77
2023/05/29 03:29:12;;;;;;;;;;;10.10;99.90;;;;;;5133555;27;20339;-77
2023/05/29 03:31:37;;;;;;;;;;;10.20;99.90;;;;;;5116613;27;19976;-77
2023/05/29 03:34:03;;;;;;;;;;;10.20;99.90;;;;;;5133426;27;19927;-77
2023/05/29 03:36:28;;;;;;;;;;;10.10;99.90;;;;;;5116738;27;19931;-77
2023/05/29 03:38:54;;;;;;;;;;;10.20;99.90;;;;;;5117008;27;20075;-76
2023/05/29 03:41:20;;;;;;;;;;;10.20;99.90;;;;;;5116407;27;19930;-76
2023/05/29 03:43:45;;;;;;;;;;;10.20;99.90;;;;;;5117035;27;19995;-78
2023/05/29 03:46:11;;;;;;;;;;;10.20;99.90;;;;;;5133241;27;20424;-79
2023/05/29 03:48:37;;;;;;;;;;;10.20;99.90;;;;;;5099945;27;19927;-76
2023/05/29 03:51:02;;;;;;;;;;;10.20;99.90;;;;;;5116864;27;20521;-78
2023/05/29 03:53:28;;;;;;;;;;;10.20;99.90;;;;;;5134268;27;19923;-77
2023/05/29 03:55:53;;;;;;;;;;;10.30;99.90;;;;;;5133802;27;20387;-77
2023/05/29 03:58:19;;;;;;;;;;;10.20;99.90;;;;;;5116293;27;19927;-77
2023/05/29 04:00:45;;;;;;;;;;;10.30;99.90;;;;;;5098955;27;19968;-77
2023/05/29 04:03:11;;;;;;;;;;;10.20;99.90;;;;;;5098958;27;19928;-77
2023/05/29 04:05:36;;;;;;;;;;;10.30;99.90;;;;;;5116387;27;19924;-77
2023/05/29 04:08:04;;;;;;;;;;;10.30;99.90;;;;;;5116377;27;19927;-78
2023/05/29 04:10:33;;;;;;;;;;;10.30;99.90;;;;;;5116705;27;20233;-77
2023/05/29 04:12:59;;;;;;;;;;;10.40;99.90;;;;;;5116279;27;19923;-77
2023/05/29 04:15:25;;;;;;;;;;;10.40;99.90;;;;;;5133146;27;20382;-77
2023/05/29 04:17:50;;;;;;;;;;;10.40;99.90;;;;;;5115970;27;19974;-77
2023/05/29 04:20:16;;;;;;;;;;;10.40;99.90;;;;;;5098508;27;19924;-77
2023/05/29 04:22:41;;;;;;;;;;;10.40;99.90;;;;;;5116109;27;19930;-77
2023/05/29 04:25:07;;;;;;;;;;;10.40;99.90;;;;;;5133077;27;20342;-77
2023/05/29 04:27:37;;;;;;;;;;;10.40;99.90;;;;;;5116282;27;19923;-77
2023/05/29 04:30:06;;;;;;;;;;;10.40;99.90;;;;;;5132903;27;20264;-77
2023/05/29 04:32:36;;;;;;;;;;;10.40;99.90;;;;;;5133124;27;19923;-76
2023/05/29 04:35:02;;;;;;;;;;;10.40;99.90;;;;;;5133107;27;20022;-76
2023/05/29 04:37:29;;;;;;;;;;;10.40;99.90;;;;;;5115420;27;20319;-77
2023/05/29 04:39:56;;;;;;;;;;;10.50;99.90;;;;;;5116112;27;20276;-77
2023/05/29 04:42:22;;;;;;;;;;;10.50;99.90;;;;;;5132523;27;20359;-77
2023/05/29 04:44:49;;;;;;;;;;;10.50;99.90;;;;;;5115283;27;19924;-77
2023/05/29 04:47:15;;;;;;;;;;;10.50;99.90;;;;;;5132406;27;19979;-77
2023/05/29 04:49:41;;;;;;;;;;;10.60;99.90;;;;;;5132855;27;19988;-77
2023/05/29 04:52:07;;;;;;;;;;;10.60;99.90;;;;;;5132835;27;20309;-76
2023/05/29 04:54:34;;;;;;;;;;;10.70;99.90;;;;;;5098384;27;20361;-77
2023/05/29 04:57:00;;;;;;;;;;;10.80;99.90;;;;;;5132465;27;19927;-77
2023/05/29 04:59:26;;;;;;;;;;;10.90;99.90;;;;;;5115187;27;19931;-77
2023/05/29 05:01:51;;;;;;;;;;;11.10;99.90;;;;;;5115502;27;19923;-77
2023/05/29 05:04:17;;;;;;;;;;;11.20;99.90;;;;;;5098089;27;19929;-77
2023/05/29 05:06:43;;;;;;;;;;;11.20;99.90;;;;;;5131762;27;19924;-78
2023/05/29 05:09:09;;;;;;;;;;;11.20;99.90;;;;;;5132383;27;19923;-76
2023/05/29 05:11:35;;;;;;;;;;;11.20;99.90;;;;;;5149703;27;19930;-76
2023/05/29 05:14:01;;;;;;;;;;;11.20;99.90;;;;;;5132064;27;20009;-75
2023/05/29 05:16:26;;;;;;;;;;;11.70;99.90;;;;;;5131950;27;19923;-75
2023/05/29 05:18:52;;;;;;;;;;;12.30;99.90;;;;;;5115254;27;20399;-75
2023/05/29 05:21:17;;;;;;;;;;;12.80;99.90;;;;;;5131637;27;19923;-75
2023/05/29 05:23:43;;;;;;;;;;;12.90;99.90;;;;;;5132241;27;20026;-77
2023/05/29 05:26:08;;;;;;;;;;;13.20;99.90;;;;;;5132100;27;19923;-77
2023/05/29 05:28:35;;;;;;;;;;;13.50;99.90;;;;;;5149308;27;20458;-77
2023/05/29 05:31:01;;;;;;;;;;;13.80;99.90;;;;;;5115097;27;19972;-77
2023/05/29 05:33:27;;;;;;;;;;;14.00;99.90;;;;;;5131961;27;19970;-77
2023/05/29 05:35:53;;;;;;;;;;;14.10;99.90;;;;;;5114905;27;19923;-76
2023/05/29 05:38:18;;;;;;;;;;;14.10;99.90;;;;;;5114562;28;20010;-77
2023/05/29 05:40:44;;;;;;;;;;;13.90;99.90;;;;;;5131908;27;19924;-76
2023/05/29 05:43:10;;;;;;;;;;;13.80;99.90;;;;;;5114642;27;19991;-76
2023/05/29 05:45:37;;;;;;;;;;;13.90;99.90;;;;;;5114154;28;19923;-77
2023/05/29 05:48:03;;;;;;;;;;;14.10;99.90;;;;;;5132057;28;19923;-77
2023/05/29 05:50:29;;;;;;;;;;;14.30;99.90;;;;;;5114104;28;19930;-77
2023/05/29 05:52:55;;;;;;;;;;;14.50;99.90;;;;;;5131945;28;19935;-76
2023/05/29 05:55:20;;;;;;;;;;;14.50;99.90;;;;;;5131312;28;20375;-77
2023/05/29 05:57:46;;;;;;;;;;;14.50;99.90;;;;;;5114101;28;19930;-77
2023/05/29 06:00:12;;;;;;;;;;;14.30;99.90;;;;;;5114628;28;20383;-77
2023/05/29 06:02:38;;;;;;;;;;;14.40;99.90;;;;;;5131392;28;19930;-77
2023/05/29 06:05:04;;;;;;;;;;;14.30;99.90;;;;;;5114744;28;19978;-76
2023/05/29 06:07:30;;;;;;;;;;;14.10;99.90;;;;;;5114263;28;19978;-76
2023/05/29 06:09:55;;;;;;;;;;;14.20;99.90;;;;;;5114682;28;20428;-76
2023/05/29 06:12:21;;;;;;;;;;;14.30;99.90;;;;;;5114083;28;19923;-77
2023/05/29 06:14:46;;;;;;;;;;;14.50;99.90;;;;;;5114764;28;20007;-76
2023/05/29 06:17:13;;;;;;;;;;;14.80;99.90;;;;;;5098152;27;19923;-76
2023/05/29 06:19:38;;;;;;;;;;;15.10;99.90;;;;;;5135518;27;19924;-75
2023/05/29 06:22:04;;;;;;;;;;;15.30;99.90;;;;;;5118898;27;19930;-76
2023/05/29 06:24:30;;;;;;;;;;;15.20;99.90;;;;;;5100931;27;19928;-76
2023/05/29 06:26:55;;;;;;;;;;;15.00;99.90;;;;;;5135877;27;19924;-76
2023/05/29 06:29:21;;;;;;;;;;;14.90;99.90;;;;;;5118454;27;19948;-76
2023/05/29 06:31:46;;;;;;;;;;;14.80;99.90;;;;;;5101065;27;20387;-77
2023/05/29 06:34:12;;;;;;;;;;;14.60;99.90;;;;;;5118379;27;19928;-76
2023/05/29 06:36:38;;;;;;;;;;;14.40;99.90;;;;;;5118070;27;19924;-76
2023/05/29 06:39:04;;;;;;;;;;;14.30;99.90;;;;;;5135152;27;20006;-76
2023/05/29 06:41:30;;;;;;;;;;;14.40;99.90;;;;;;5118193;27;19986;-76
2023/05/29 06:43:55;;;;;;;;;;;14.50;99.90;;;;;;5134927;27;19923;-76
2023/05/29 06:46:21;;;;;;;;;;;14.60;99.90;;;;;;5135490;27;19992;-76
2023/05/29 06:48:47;;;;;;;;;;;14.50;99.90;;;;;;5117724;27;20341;-76
2023/05/29 06:51:12;;;;;;;;;;;14.30;99.90;;;;;;5134717;27;20364;-76
2023/05/29 06:53:38;;;;;;;;;;;14.20;99.90;;;;;;5134607;27;19949;-75
2023/05/29 06:56:04;;;;;;;;;;;14.10;99.90;;;;;;5135068;27;19930;-77
2023/05/29 06:58:31;;;;;;;;;;;14.10;99.90;;;;;;5134770;27;19974;-77
2023/05/29 07:00:57;;;;;;;;;;;14.20;99.90;;;;;;5134466;27;19923;-77
2023/05/29 07:03:22;;;;;;;;;;;14.30;99.90;;;;;;5152429;27;19972;-78
2023/05/29 07:05:48;;;;;;;;;;;14.30;99.90;;;;;;5117510;27;20018;-77
2023/05/29 07:08:13;;;;;;;;;;;14.20;99.90;;;;;;5117824;27;19923;-75
2023/05/29 07:10:39;;;;;;;;;;;14.10;99.90;;;;;;5134256;27;19934;-75
2023/05/29 07:13:06;;;;;;;;;;;14.10;99.90;;;;;;5134489;27;19924;-76
2023/05/29 07:15:32;;;;;;;;;;;14.20;99.90;;;;;;5117506;27;19982;-77
2023/05/29 07:17:57;;;;;;;;;;;14.30;99.90;;;;;;5134546;27;20329;-76
2023/05/29 07:20:23;;;;;;;;;;;14.50;99.90;;;;;;5151679;27;19937;-76
2023/05/29 07:22:48;;;;;;;;;;;14.90;99.90;;;;;;5133954;27;19962;-76
2023/05/29 07:25:14;;;;;;;;;;;15.30;99.90;;;;;;5117649;27;19977;-76
2023/05/29 07:27:40;;;;;;;;;;;15.60;99.90;;;;;;5117116;27;19923;-76
2023/05/29 07:30:06;;;;;;;;;;;16.00;99.90;;;;;;5116112;27;19966;-77
2023/05/29 07:32:32;;;;;;;;;;;16.30;99.90;;;;;;5099783;27;19923;-78
2023/05/29 07:34:58;;;;;;;;;;;16.10;99.90;;;;;;5134326;27;19931;-76
2023/05/29 07:37:23;;;;;;;;;;;16.50;99.90;;;;;;5133680;27;19924;-75
2023/05/29 07:39:49;;;;;;;;;;;16.40;99.90;;;;;;5099745;27;19927;-73
2023/05/29 07:42:14;;;;;;;;;;;16.60;99.90;;;;;;5134239;27;19987;-76
2023/05/29 07:44:42;;;;;;;;;;;16.50;99.90;;;;;;5115640;27;20220;-76
2023/05/29 07:47:08;;;;;;;;;;;17.00;99.90;;;;;;5134048;27;20314;-77
2023/05/29 07:49:35;;;;;;;;;;;17.10;99.60;;;;;;5099603;27;20376;-76
2023/05/29 07:52:04;;;;;;;;;;;17.10;99.50;;;;;;5116894;27;19939;-73
2023/05/29 07:54:33;;;;;;;;;;;17.30;99.20;;;;;;5133869;27;19934;-73
2023/05/29 07:56:59;;;;;;;;;;;17.60;99.00;;;;;;5115551;27;20402;-72
2023/05/29 07:59:25;;;;;;;;;;;17.70;98.70;;;;;;5133348;27;20372;-71
2023/05/29 08:01:51;;;;;;;;;;;17.70;98.20;;;;;;5150574;27;19923;-73
2023/05/29 08:04:16;;;;;;;;;;;17.50;98.40;;;;;;5150917;27;19931;-72
2023/05/29 08:06:43;;;;;;;;;;;17.40;98.70;;;;;;5132906;27;19923;-73
2023/05/29 08:09:09;;;;;;;;;;;17.30;98.60;;;;;;5133895;27;19984;-73
2023/05/29 08:11:44;;;;;;;;;;;17.10;99.10;;;;;;5133495;27;19924;-71
2023/05/29 08:14:27;;;;;;;;;;;16.90;98.60;;;;;;5133831;27;19948;-74
2023/05/29 08:16:59;;;;;;;;;;;16.70;99.10;;;;;;5117008;27;20022;-75
2023/05/29 08:19:29;;;;;;;;;;;16.50;99.30;;;;;;5116846;27;20331;-74
2023/05/29 08:22:12;;;;;;;;;;;16.50;99.10;;;;;;5098852;27;19980;-74
2023/05/29 08:24:37;;;;;;;;;;;16.30;98.90;;;;;;5133700;27;20022;-72
2023/05/29 08:27:03;;;;;;;;;;;16.50;99.40;;;;;;5115859;27;20364;-73
2023/05/29 08:29:29;;;;;;;;;;;16.50;99.60;;;;;;5150668;27;19979;-73
2023/05/29 08:31:54;;;;;;;;;;;16.50;99.60;;;;;;5115797;27;19923;-73
2023/05/29 08:34:20;;;;;;;;;;;16.60;99.90;;;;;;5116021;27;19930;-74
2023/05/29 08:36:45;;;;;;;;;;;16.40;99.40;;;;;;5115753;27;20520;-72
2023/05/29 08:39:11;;;;;;;;;;;16.30;99.50;;;;;;5116123;27;20392;-75
2023/05/29 08:41:43;;;;;;;;;;;16.00;99.90;;;;;;5132892;27;20017;-73
2023/05/29 08:44:11;;;;;;;;;;;15.90;99.90;;;;;;5132848;27;20006;-75
2023/05/29 08:46:37;;;;;;;;;;;15.80;99.90;;;;;;5150637;27;19930;-74
2023/05/29 08:49:04;;;;;;;;;;;15.70;99.90;;;;;;5098729;27;19919;-73
2023/05/29 08:51:32;;;;;;;;;;;15.80;99.90;;;;;;5132818;27;19939;-74
2023/05/29 08:53:57;;;;;;;;;;;15.90;99.90;;;;;;5132297;27;20022;-74
2023/05/29 08:56:23;;;;;;;;;;;16.00;99.90;;;;;;5115559;27;20018;-75
2023/05/29 08:58:50;;;;;;;;;;;16.00;99.90;;;;;;5132648;27;19928;-74
2023/05/29 09:01:16;;;;;;;;;;;15.90;99.90;;;;;;5115712;27;19931;-76
2023/05/29 09:03:42;;;;;;;;;;;15.80;99.90;;;;;;5115476;27;19945;-77
2023/05/29 09:06:08;;;;;;;;;;;15.80;99.90;;;;;;5115135;27;19923;-75
2023/05/29 09:08:34;;;;;;;;;;;15.80;99.90;;;;;;5115636;27;19923;-75
2023/05/29 09:11:00;;;;;;;;;;;16.00;99.90;;;;;;5149419;27;20285;-75
2023/05/29 09:13:28;;;;;;;;;;;16.10;99.90;;;;;;5115475;27;19923;-75
2023/05/29 09:16:00;;;;;;;;;;;16.30;99.90;;;;;;5098279;27;19923;-75
2023/05/29 09:18:30;;;;;;;;;;;16.50;99.90;;;;;;5132125;27;19986;-75
2023/05/29 09:20:57;;;;;;;;;;;16.70;99.50;;;;;;5097849;27;19930;-75
2023/05/29 09:23:23;;;;;;;;;;;17.00;99.50;;;;;;5132533;27;19924;-75
2023/05/29 09:25:51;;;;;;;;;;;17.20;99.30;;;;;;5148818;27;19943;-75
2023/05/29 09:28:18;;;;;;;;;;;17.30;98.80;;;;;;5132865;27;19930;-76
2023/05/29 09:30:44;;;;;;;;;;;17.40;99.20;;;;;;5115470;27;20034;-74
2023/05/29 09:33:11;;;;;;;;;;;17.50;99.40;;;;;;5133184;27;19923;-76
2023/05/29 09:35:37;;;;;;;;;;;17.50;99.00;;;;;;5132545;27;19930;-77
2023/05/29 09:38:02;;;;;;;;;;;17.70;98.90;;;;;;5114269;28;19923;-75
2023/05/29 09:40:33;;;;;;;;;;;17.60;98.90;;;;;;5132139;27;20319;-75
2023/05/29 09:43:04;;;;;;;;;;;17.60;98.50;;;;;;5131858;27;20318;-75
2023/05/29 09:45:30;;;;;;;;;;;17.50;98.70;;;;;;5114647;27;20006;-75
2023/05/29 09:47:56;;;;;;;;;;;17.70;99.40;;;;;;5114767;28;19946;-74
2023/05/29 09:50:25;;;;;;;;;;;17.80;98.40;;;;;;5131991;28;20352;-75
2023/05/29 09:52:52;;;;;;;;;;;17.90;98.50;;;;;;5131403;27;19923;-74
2023/05/29 09:55:21;;;;;;;;;;;17.80;98.30;;;;;;5131418;28;19970;-74
2023/05/29 09:57:47;;;;;;;;;;;17.80;98.40;;;;;;5114405;28;20030;-74
2023/05/29 10:00:13;;;;;;;;;;;17.90;98.50;;;;;;5114679;28;20517;-75
2023/05/29 10:02:40;;;;;;;;;;;18.00;98.60;;;;;;5097869;28;20549;-75
2023/05/29 10:05:06;;;;;;;;;;;18.00;98.50;;;;;;5114446;28;19924;-76
2023/05/29 10:07:35;;;;;;;;;;;18.00;98.20;;;;;;5131373;28;19923;-75
2023/05/29 10:10:05;;;;;;;;;;;17.80;98.20;;;;;;5148531;27;19924;-75
2023/05/29 10:12:36;;;;;;;;;;;17.90;98.80;;;;;;5131705;28;20018;-76
2023/05/29 10:15:02;;;;;;;;;;;17.90;98.50;;;;;;5148583;27;20014;-76
2023/05/29 10:17:32;;;;;;;;;;;17.80;98.70;;;;;;5114172;28;20358;-72
2023/05/29 10:20:00;;;;;;;;;;;17.80;98.80;;;;;;5131163;28;19929;-73
2023/05/29 10:22:27;;;;;;;;;;;17.80;98.80;;;;;;5131352;28;19923;-72
2023/05/29 10:24:53;;;;;;;;;;;17.70;98.70;;;;;;5148462;27;19930;-72
2023/05/29 10:27:18;;;;;;;;;;;17.60;98.50;;;;;;5113783;28;20613;-73
2023/05/29 10:29:53;;;;;;;;;;;17.50;98.50;;;;;;5130953;28;19923;-72
2023/05/29 10:32:22;;;;;;;;;;;17.50;98.80;;;;;;5113771;28;20460;-72
2023/05/29 10:34:56;;;;;;;;;;;17.50;98.30;;;;;;5114238;28;20026;-72
2023/05/29 10:37:41;;;;;;;;;;;17.50;98.90;;;;;;5130742;28;19930;-72
2023/05/29 10:40:11;;;;;;;;;;;17.70;99.10;;;;;;5130691;28;19923;-72
2023/05/29 10:42:40;;;;;;;;;;;17.70;99.20;;;;;;5114366;28;20010;-74
2023/05/29 10:45:06;;;;;;;;;;;17.90;99.40;;;;;;5130377;28;19924;-74
2023/05/29 10:47:31;;;;;;;;;;;17.90;99.10;;;;;;5114258;28;19954;-73
2023/05/29 10:50:00;;;;;;;;;;;17.90;98.80;;;;;;5131319;28;20241;-73
2023/05/29 10:52:26;;;;;;;;;;;17.90;99.20;;;;;;5113817;28;19931;-72
2023/05/29 10:54:53;;;;;;;;;;;17.90;98.30;;;;;;5131324;28;19996;-73
2023/05/29 10:57:20;;;;;;;;;;;17.80;98.50;;;;;;5147841;27;19930;-73
2023/05/29 10:59:46;;;;;;;;;;;17.70;98.60;;;;;;5114106;28;19923;-74
2023/05/29 11:02:17;;;;;;;;;;;17.70;98.80;;;;;;5114018;28;19930;-73
2023/05/29 11:04:42;;;;;;;;;;;17.70;99.10;;;;;;5115644;27;19934;-74
2023/05/29 11:07:28;;;;;;;;;;;17.80;98.60;;;;;;5117668;27;20296;-73
2023/05/29 11:09:53;;;;;;;;;;;17.90;98.40;;;;;;5134468;27;19961;-73
2023/05/29 11:12:32;;;;;;;;;;;17.70;98.30;;;;;;5134942;27;19927;-73
2023/05/29 11:15:06;;;;;;;;;;;17.50;98.40;;;;;;5117849;27;19949;-74
2023/05/29 11:17:37;;;;;;;;;;;17.20;98.60;;;;;;5134511;27;19930;-73
2023/05/29 11:20:16;;;;;;;;;;;17.30;98.90;;;;;;5117584;27;19975;-72
2023/05/29 11:22:51;;;;;;;;;;;17.30;98.80;;;;;;5134633;27;20003;-73
2023/05/29 11:25:17;;;;;;;;;;;17.30;99.40;;;;;;5115071;27;19938;-73
2023/05/29 11:27:43;;;;;;;;;;;17.30;99.60;;;;;;5115277;27;19927;-74
2023/05/29 11:30:10;;;;;;;;;;;17.20;99.00;;;;;;5151042;27;19934;-69
2023/05/29 11:32:36;;;;;;;;;;;17.20;99.10;;;;;;5135184;27;20002;-69
2023/05/29 11:35:09;;;;;;;;;;;17.30;99.10;;;;;;5134312;27;19923;-67
2023/05/29 11:37:35;;;;;;;;;;;17.40;99.20;;;;;;5133814;27;20309;-69
2023/05/29 11:40:03;;;;;;;;;;;17.40;99.40;;;;;;5134201;27;19972;-72
2023/05/29 11:42:29;;;;;;;;;;;17.50;99.30;;;;;;5134129;27;20446;-69
2023/05/29 11:44:55;;;;;;;;;;;17.50;98.70;;;;;;5133851;27;19959;-70
2023/05/29 11:47:22;;;;;;;;;;;17.40;98.50;;;;;;5116854;27;20288;-73
2023/05/29 11:49:49;;;;;;;;;;;17.20;97.30;;;;;;5116781;27;19923;-74
2023/05/29 11:52:16;;;;;;;;;;;17.10;98.20;;;;;;5133909;27;20023;-71
2023/05/29 11:54:46;;;;;;;;;;;17.10;99.00;;;;;;5133887;27;19928;-72
2023/05/29 11:57:18;;;;;;;;;;;17.00;99.20;;;;;;5115973;27;19923;-73
2023/05/29 11:59:44;;;;;;;;;;;17.00;99.60;;;;;;5150500;27;20376;-69
2023/05/29 12:02:11;;;;;;;;;;;17.00;99.60;;;;;;5133409;27;19981;-74
2023/05/29 12:04:37;;;;;;;;;;;17.00;99.80;;;;;;5099062;27;19923;-73
2023/05/29 12:07:16;;;;;;;;;;;17.10;99.00;;;;;;5115821;27;19970;-74
2023/05/29 12:09:41;;;;;;;;;;;17.00;98.90;;;;;;5133360;27;19970;-72
2023/05/29 12:12:07;;;;;;;;;;;16.80;99.50;;;;;;5116342;27;20049;-74
2023/05/29 12:14:33;;;;;;;;;;;16.70;99.40;;;;;;5098847;27;19963;-75
2023/05/29 12:16:58;;;;;;;;;;;16.70;99.90;;;;;;5115687;27;19977;-73
2023/05/29 12:19:24;;;;;;;;;;;16.80;99.90;;;;;;5116136;27;19991;-77
2023/05/29 12:21:50;;;;;;;;;;;16.80;99.30;;;;;;5150561;27;19931;-76
2023/05/29 12:24:17;;;;;;;;;;;16.80;99.40;;;;;;5115379;27;19923;-76
2023/05/29 12:26:43;;;;;;;;;;;16.60;99.60;;;;;;5116228;27;19952;-74
2023/05/29 12:29:09;;;;;;;;;;;16.60;99.60;;;;;;5116271;27;19924;-75
2023/05/29 12:31:35;;;;;;;;;;;16.60;99.40;;;;;;5133262;27;19978;-75
2023/05/29 12:34:21;;;;;;;;;;;16.50;99.10;;;;;;5116279;27;19971;-77
2023/05/29 12:36:47;;;;;;;;;;;16.50;99.40;;;;;;5115121;27;19973;-77
2023/05/29 12:39:12;;;;;;;;;;;16.60;99.10;;;;;;5116187;27;20068;-75
2023/05/29 12:41:39;;;;;;;;;;;16.70;99.40;;;;;;5133140;27;20406;-75
2023/05/29 12:44:05;;;;;;;;;;;16.80;99.90;;;;;;5099122;27;20313;-75
2023/05/29 12:46:43;;;;;;;;;;;16.90;98.30;;;;;;5133206;27;20314;-74
2023/05/29 12:49:12;;;;;;;;;;;16.90;98.70;;;;;;5133340;27;19924;-77
2023/05/29 12:51:40;;;;;;;;;;;16.90;98.60;;;;;;5115922;27;19923;-76
2023/05/29 12:54:05;;;;;;;;;;;16.80;98.50;;;;;;5150366;27;19931;-75
2023/05/29 12:56:31;;;;;;;;;;;16.90;98.90;;;;;;5132642;27;19930;-76
2023/05/29 12:58:57;;;;;;;;;;;16.90;99.10;;;;;;5115715;27;19923;-76
2023/05/29 13:01:23;;;;;;;;;;;16.90;98.80;;;;;;5098482;27;19923;-75
2023/05/29 13:03:50;;;;;;;;;;;16.90;99.20;;;;;;5133037;27;19927;-76
2023/05/29 13:06:15;;;;;;;;;;;16.90;99.20;;;;;;5115896;27;20104;-75
2023/05/29 13:08:41;;;;;;;;;;;16.80;99.40;;;;;;5115120;27;19949;-75
2023/05/29 13:11:07;;;;;;;;;;;16.70;99.30;;;;;;5098639;27;19931;-75
2023/05/29 13:13:32;;;;;;;;;;;16.70;98.50;;;;;;5115006;27;20281;-77
2023/05/29 13:15:58;;;;;;;;;;;16.80;97.10;;;;;;5132117;27;20373;-76
2023/05/29 13:18:24;;;;;;;;;;;16.70;97.50;;;;;;5132314;27;19932;-74
2023/05/29 13:20:49;;;;;;;;;;;16.80;98.30;;;;;;5098582;27;19927;-74
2023/05/29 13:23:15;;;;;;;;;;;16.80;98.80;;;;;;5115418;27;19923;-75
2023/05/29 13:25:41;;;;;;;;;;;16.80;98.30;;;;;;5098105;27;19923;-74
2023/05/29 13:28:06;;;;;;;;;;;16.80;97.40;;;;;;5114363;27;19927;-74
2023/05/29 13:30:32;;;;;;;;;;;16.70;98.10;;;;;;5114622;27;19929;-74
2023/05/29 13:32:57;;;;;;;;;;;16.80;98.80;;;;;;5115488;27;20031;-75
2023/05/29 13:35:23;;;;;;;;;;;16.70;99.00;;;;;;5114711;27;19972;-75
2023/05/29 13:37:49;;;;;;;;;;;16.70;99.60;;;;;;5097915;27;19978;-75
2023/05/29 13:40:15;;;;;;;;;;;16.60;99.20;;;;;;5098431;27;19986;-75
2023/05/29 13:42:40;;;;;;;;;;;16.60;99.50;;;;;;5114813;28;19924;-74
2023/05/29 13:45:06;;;;;;;;;;;16.60;99.90;;;;;;5097404;28;19923;-75
2023/05/29 13:47:32;;;;;;;;;;;16.70;99.90;;;;;;5114678;28;19973;-75
2023/05/29 13:49:58;;;;;;;;;;;16.60;99.30;;;;;;5098100;28;19923;-69
2023/05/29 13:52:24;;;;;;;;;;;16.60;99.00;;;;;;5114784;28;19923;-71
2023/05/29 13:54:50;;;;;;;;;;;16.50;97.60;;;;;;5131983;28;19924;-71
2023/05/29 13:57:16;;;;;;;;;;;16.40;98.40;;;;;;5131241;28;19946;-75
2023/05/29 13:59:41;;;;;;;;;;;16.40;96.90;;;;;;5131769;28;20015;-77
2023/05/29 14:02:08;;;;;;;;;;;16.40;97.60;;;;;;5114755;28;20232;-73
2023/05/29 14:04:34;;;;;;;;;;;16.30;98.00;;;;;;5113884;28;19923;-73
2023/05/29 14:07:00;;;;;;;;;;;16.20;97.90;;;;;;5131461;28;19951;-73
2023/05/29 14:09:28;;;;;;;;;;;16.30;98.40;;;;;;5096886;28;19924;-74
2023/05/29 14:11:54;;;;;;;;;;;16.30;98.70;;;;;;5131620;28;19981;-73
2023/05/29 14:14:20;;;;;;;;;;;16.40;97.40;;;;;;5114413;28;20275;-74
2023/05/29 14:16:46;;;;;;;;;;;16.20;97.60;;;;;;5130260;28;19924;-71